• Join FlightAware (Why Join?)
  • Login
  • US Flag 
02:38PM EDT


 

Airport Tracker/Info


-or-


 

Live Flight TrackerFlight Track Log ✈ UAL1135 ✈ 29-Apr-2013 ✈ KSFO - KORD

Flight Track Log - Related Links

Times and Time Zones

All times are in EDT time to prevent confusion due to time zone crossing. See the UAL1135 flight status page for this flight to view local times or setup timezone preferences in your user account.

Time Position Orientation Groundspeed Altitude Reporting Facility
EDT Latitude Longitude Course Direction KTS MPH feet Rate Location/Type
12:33PM 37.6850 -122.3000 46° Northeast 217 250 3,500  Level FlightAware
12:34PM 37.7030 -122.2760 47° Northeast 237 273 4,300 2,280 Climbing FlightAware
12:34PM 37.7270 -122.2430 47° Northeast 249 287 5,600 2,460 Climbing FlightAware
12:35PM 37.7460 -122.2180 46° Northeast 258 297 6,600 2,580 Climbing FlightAware
12:35PM 37.7750 -122.1890 38° Northeast 261 300 8,000 2,400 Climbing FlightAware
12:36PM 37.8050 -122.1620 35° Northeast 277 319 9,000 2,040 Climbing FlightAware
12:36PM 37.8330 -122.1360 36° Northeast 290 334 9,900 2,100 Climbing FlightAware
12:37PM 37.8830 -122.0880 37° Northeast 313 360 11,500 1,680 Climbing FlightAware
12:38PM 37.9320 -122.0410 37° Northeast 351 404 12,300 1,860 Climbing FlightAware
12:38PM 37.9920 -121.9860 36° Northeast 359 413 14,200 2,220 Climbing FlightAware
12:39PM 38.0450 -121.9350 37° Northeast 371 427 15,500 1,920 Climbing FlightAware
12:40PM 38.1020 -121.8800 37° Northeast 386 444 16,800 1,920 Climbing FlightAware
12:40PM 38.1650 -121.8200 37° Northeast 394 453 18,300 1,920 Climbing FlightAware
12:41PM 38.2260 -121.7620 37° Northeast 402 463 19,600 1,800 Climbing FlightAware
12:42PM 38.2830 -121.7070 37° Northeast 407 468 20,700 1,620 Climbing FlightAware
12:42PM 38.3560 -121.6370 37° Northeast 421 484 21,900 1,500 Climbing FlightAware
12:43PM 38.4180 -121.5760 38° Northeast 428 493 22,900 1,440 Climbing FlightAware
12:44PM 38.4770 -121.4950 47° Northeast 440 506 24,000 1,620 Climbing FlightAware
12:45PM 38.5270 -121.4100 53° Northeast 441 507 25,200 1,620 Climbing FlightAware
12:45PM 38.5730 -121.3310 53° Northeast 441 507 26,200 1,440 Climbing FlightAware
12:46PM 38.6330 -121.2280 53° Northeast 447 514 27,300 1,200 Climbing FlightAware
12:47PM 38.6810 -121.1450 53° Northeast 454 522 27,900 960 Climbing FlightAware
12:47PM 38.7380 -121.0460 54° Northeast 462 532 28,700 1,020 Climbing FlightAware
12:48PM 38.7880 -120.9590 54° Northeast 465 535 29,400 1,260 Climbing FlightAware
12:49PM 38.8390 -120.8700 54° Northeast 459 528 30,400 1,080 Climbing FlightAware
12:49PM 38.8960 -120.7700 54° Northeast 456 525 31,000 420 Climbing FlightAware
12:50PM 38.9460 -120.6850 53° Northeast 457 526 31,000  Level FlightAware
12:51PM 39.0030 -120.5870 53° Northeast 457 526 31,000  Level FlightAware
12:52PM 39.0530 -120.5000 53° Northeast 457 526 31,000  Level FlightAware
12:52PM 39.1020 -120.4140 54° Northeast 461 531 31,000  Level FlightAware
12:53PM 39.1470 -120.3340 54° Northeast 462 532 31,000 120 Level FlightAware
12:54PM 39.2170 -120.2280 50° Northeast 460 529 31,200 660 Climbing FlightAware
12:55PM 39.3310 -120.0900 43° Northeast 456 525 32,500 900 Climbing FlightAware
12:56PM 39.3930 -120.0150 43° Northeast 457 526 33,100 900 Climbing FlightAware
12:56PM 39.4610 -119.9270 45° Northeast 459 528 33,800 780 Climbing FlightAware
12:57PM 39.4960 -119.8630 55° Northeast 462 532 34,200 960 Climbing FlightAware
12:58PM 39.5500 -119.7540 57° Northeast 458 527 35,000 600 Climbing FlightAware
12:58PM 39.5980 -119.6580 57° Northeast 458 527 35,000  Level FlightAware
12:59PM 39.6690 -119.5150 57° Northeast 459 528 35,000  Level FlightAware
01:00PM 39.7090 -119.4360 57° Northeast 459 528 35,000  Level FlightAware
01:01PM 39.7380 -119.3770 57° Northeast 459 528 35,000  Level FlightAware
01:01PM 39.7980 -119.2530 58° Northeast 459 528 35,000  Level FlightAware
01:02PM 39.8370 -119.1750 57° Northeast 459 528 35,000  Level FlightAware
01:03PM 39.8770 -119.0960 57° Northeast 459 528 35,000  Level FlightAware
01:03PM 39.9160 -119.0170 57° Northeast 459 528 35,000  Level FlightAware
01:04PM 39.9550 -118.9380 57° Northeast 459 528 35,000  Level FlightAware
01:05PM 40.0040 -118.8390 57° Northeast 459 528 35,000  Level FlightAware
01:06PM 40.0440 -118.7600 57° Northeast 459 528 35,000  Level FlightAware
01:06PM 40.0830 -118.6810 57° Northeast 459 528 35,000  Level FlightAware
01:07PM 40.1220 -118.6020 57° Northeast 459 528 35,000  Level FlightAware
01:08PM 40.1710 -118.5030 57° Northeast 459 528 35,000  Level FlightAware
01:08PM 40.2110 -118.4230 57° Northeast 459 528 35,000  Level FlightAware
01:09PM 40.2500 -118.3440 57° Northeast 459 528 35,000  Level FlightAware
01:10PM 40.2890 -118.2650 57° Northeast 459 528 35,000  Level FlightAware
01:10PM 40.3290 -118.1850 57° Northeast 459 528 35,000  Level FlightAware
01:11PM 40.3253 -117.8392 57° Northeast 472 543 35,000  Level Oakland Center
01:11PM 40.3467 -117.7611 70° East 472 543 35,000  Level Salt Lake Center
01:12PM 40.3961 -117.5783 70° East 474 545 35,000  Level Salt Lake Center
01:13PM 40.4375 -117.4222 71° East 473 544 35,000  Level Salt Lake Center
01:14PM 40.4797 -117.2639 71° East 475 547 35,000  Level Salt Lake Center
01:15PM 40.5292 -117.0775 71° East 480 552 35,000  Level Salt Lake Center
01:16PM 40.5717 -116.9147 71° East 483 556 35,000  Level Salt Lake Center
01:17PM 40.6153 -116.7525 70° East 484 557 35,000  Level Salt Lake Center
01:18PM 40.6661 -116.5653 70° East 482 555 35,000  Level Salt Lake Center
01:19PM 40.7092 -116.4056 70° East 482 555 35,000  Level Salt Lake Center
01:20PM 40.7583 -116.2206 71° East 480 552 35,000  Level Salt Lake Center
01:21PM 40.8019 -116.0597 70° East 482 555 35,000  Level Salt Lake Center
01:22PM 40.8425 -115.9017 71° East 478 550 35,000  Level Salt Lake Center
01:23PM 40.8922 -115.7142 71° East 481 554 35,000  Level Salt Lake Center
01:30PM 41.1610 -114.6610 71° East 490 564 35,000  Level FlightAware
01:30PM 41.1920 -114.5370 72° East 488 562 35,000  Level FlightAware
01:31PM 41.2220 -114.4170 72° East 487 560 35,000  Level FlightAware
01:32PM 41.2440 -114.3290 72° East 487 560 35,000  Level FlightAware
01:32PM 41.2670 -114.2320 72° East 487 560 35,000  Level FlightAware
01:33PM 41.3160 -114.0330 72° East 487 560 35,000  Level FlightAware
01:35PM 41.3730 -113.7340 76° East 497 572 35,000  Level FlightAware
01:37PM 41.4120 -113.3170 83° East 497 572 35,000  Level FlightAware
01:38PM 41.4240 -113.1890 83° East 500 575 35,000  Level FlightAware
01:39PM 41.4360 -113.0530 83° East 501 577 35,000  Level FlightAware
01:39PM 41.4470 -112.9300 83° East 502 578 35,000  Level FlightAware
01:40PM 41.4590 -112.7900 83° East 502 578 35,000  Level FlightAware
01:41PM 41.4700 -112.6690 83° East 502 578 35,000  Level FlightAware
01:42PM 41.4800 -112.5450 84° East 502 578 35,000  Level FlightAware
01:42PM 41.4920 -112.4070 83° East 501 577 35,000  Level FlightAware
01:43PM 41.5020 -112.2850 84° East 497 572 35,000  Level FlightAware
01:44PM 41.5130 -112.1480 84° East 494 568 35,000  Level FlightAware
01:44PM 41.5230 -112.0280 84° East 489 563 35,000  Level FlightAware
01:45PM 41.5320 -111.9050 84° East 487 560 35,000  Level FlightAware
01:46PM 41.5430 -111.7710 84° East 485 558 35,000  Level FlightAware
01:46PM 41.5520 -111.6550 84° East 482 555 35,000  Level FlightAware
01:47PM 41.5620 -111.5190 84° East 486 559 35,000  Level FlightAware
01:48PM 41.5710 -111.4000 84° East 485 558 35,000  Level FlightAware
01:49PM 41.5810 -111.2750 84° East 487 560 35,000  Level FlightAware
01:49PM 41.5900 -111.1480 85° East 489 563 35,000  Level FlightAware
01:50PM 41.5990 -111.0180 85° East 491 565 35,000  Level FlightAware
01:51PM 41.6070 -110.9260 83° East 491 565 35,000  Level FlightAware
01:51PM 41.6150 -110.8230 84° East 491 565 35,000  Level FlightAware
01:52PM 41.6250 -110.6950 84° East 491 565 35,000  Level FlightAware
01:53PM 41.6330 -110.5920 84° East 491 565 35,000  Level FlightAware
01:53PM 41.6410 -110.4890 84° East 491 565 35,000  Level FlightAware
01:54PM 41.6490 -110.3860 84° East 491 565 35,000  Level FlightAware
01:55PM 41.6570 -110.2840 84° East 491 565 35,000  Level FlightAware
01:56PM 41.6670 -110.1550 84° East 491 565 35,000  Level FlightAware
01:56PM 41.6750 -110.0520 84° East 491 565 35,000  Level FlightAware
01:57PM 41.6830 -109.9490 84° East 491 565 35,000  Level FlightAware
01:58PM 41.6910 -109.8470 84° East 491 565 35,000  Level FlightAware
01:58PM 41.6990 -109.7440 84° East 491 565 35,000  Level FlightAware
01:59PM 41.7090 -109.6150 84° East 491 565 35,000  Level FlightAware
02:00PM 41.7170 -109.5120 84° East 491 565 35,000 -2,820 Level FlightAware
02:01PM 41.7189 -109.1236 84° East 497 572 31,000 -2,280 Descending Salt Lake Center
02:02PM 41.7289 -108.9161 86° East 496 571 31,000  Level Salt Lake Center
02:03PM 41.7392 -108.7397 85° East 494 568 31,000  Level Salt Lake Center
02:04PM 41.7481 -108.5647 86° East 492 566 31,000  Level Salt Lake Center
02:05PM 41.7578 -108.3592 86° East 494 568 31,000  Level Salt Lake Center
02:06PM 41.7664 -108.1853 86° East 490 564 31,000  Level Salt Lake Center
02:06PM 41.7692 -108.0931 88° East 495 570 31,000  Level Denver Center
02:07PM 41.7769 -107.9172 87° East 494 568 31,000  Level Denver Center
02:08PM 41.7858 -107.7114 87° East 496 571 31,000  Level Denver Center
02:09PM 41.7942 -107.5344 86° East 497 572 31,000  Level Denver Center
02:10PM 41.8022 -107.3278 87° East 499 574 31,000  Level Denver Center
02:11PM 41.8078 -107.1517 88° East 497 572 31,000  Level Denver Center
02:17PM 41.8420 -106.1440 88° East 500 575 31,000  Level FlightAware
02:17PM 41.8450 -106.0230 88° East 499 574 31,000  Level FlightAware
02:18PM 41.8560 -105.9090 83° East 497 572 31,000  Level FlightAware
02:19PM 41.8730 -105.7700 81° East 493 567 31,000  Level FlightAware
02:19PM 41.8860 -105.6600 81° East 493 567 31,000  Level FlightAware
02:20PM 41.9010 -105.5250 81° East 491 565 31,000  Level FlightAware
02:21PM 41.9170 -105.3860 81° East 492 566 31,000  Level FlightAware
02:21PM 41.9300 -105.2660 82° East 491 565 31,000  Level FlightAware
02:22PM 41.9450 -105.1380 81° East 494 568 31,000  Level FlightAware
02:23PM 41.9565 -105.0300 82° East 492 566 31,000  Level FlightAware ADS-B
02:23PM 41.9668 -104.9330 82° East 488 562 31,000  Level FlightAware ADS-B
02:24PM 41.9766 -104.8430 82° East 486 559 31,000  Level FlightAware ADS-B
02:24PM 41.9865 -104.7510 82° East 486 559 31,000  Level FlightAware ADS-B
02:25PM 41.9961 -104.6610 82° East 486 559 31,000  Level FlightAware ADS-B
02:25PM 42.0069 -104.5600 82° East 488 562 31,000  Level FlightAware ADS-B
02:26PM 42.0164 -104.4700 82° East 488 562 31,000  Level FlightAware ADS-B
02:26PM 42.0256 -104.3790 82° East 488 562 31,000  Level FlightAware ADS-B
02:27PM 42.0357 -104.2820 82° East 487 560 31,000  Level FlightAware ADS-B
02:27PM 42.0450 -104.1920 82° East 485 558 31,000  Level FlightAware ADS-B
02:28PM 42.0541 -104.1020 82° East 482 555 31,000  Level FlightAware ADS-B
02:28PM 42.0632 -104.0120 82° East 482 555 31,000  Level FlightAware ADS-B
02:29PM 42.0721 -103.9220 82° East 482 555 31,000  Level FlightAware ADS-B
02:29PM 42.0814 -103.8290 82° East 480 552 31,000  Level FlightAware ADS-B
02:30PM 42.0902 -103.7400 82° East 480 552 31,000  Level FlightAware ADS-B
02:30PM 42.0988 -103.6510 83° East 480 552 31,000  Level FlightAware ADS-B
02:31PM 42.1074 -103.5620 83° East 478 550 31,000  Level FlightAware ADS-B
02:31PM 42.1158 -103.4720 83° East 477 549 31,000  Level FlightAware ADS-B
02:32PM 42.1243 -103.3820 83° East 477 549 31,000  Level FlightAware ADS-B
02:32PM 42.1327 -103.2940 83° East 476 548 31,000  Level FlightAware ADS-B
02:33PM 42.1419 -103.1960 83° East 476 548 31,000  Level FlightAware ADS-B
02:34PM 42.1513 -103.0950 83° East 476 548 31,000  Level FlightAware ADS-B
02:34PM 42.1610 -102.9900 83° East 477 549 31,000  Level FlightAware ADS-B
02:35PM 42.1695 -102.8950 83° East 476 548 31,000  Level FlightAware ADS-B
02:35PM 42.1774 -102.8070 83° East 474 545 31,000  Level FlightAware ADS-B
02:36PM 42.1861 -102.7100 83° East 472 543 31,000  Level FlightAware ADS-B
02:36PM 42.1908 -102.6483 83° East 471 542 31,000  Level Denver Center
02:37PM 42.2086 -102.4511 83° East 474 545 31,000  Level Denver Center
02:38PM 42.2261 -102.2819 82° East 475 547 31,000  Level Denver Center
02:39PM 42.2467 -102.1472 78° East 472 543 31,000  Level Denver Center
02:40PM 42.2764 -101.9225 80° East 469 540 31,000  Level Denver Center
02:41PM 42.3036 -101.7308 79° East 471 542 31,000  Level Denver Center
02:42PM 42.3236 -101.5650 81° East 468 539 31,000  Level Denver Center
02:43PM 42.3456 -101.3969 80° East 471 542 31,000  Level Denver Center
02:45PM 42.3706 -101.2031 80° East 469 540 31,000  Level Denver Center
02:46PM 42.3925 -101.0347 80° East 471 542 31,000  Level Denver Center
02:47PM 42.4161 -100.8386 81° East 472 543 31,000  Level Denver Center
02:48PM 42.4378 -100.6703 80° East 474 545 31,000  Level Denver Center
02:49PM 42.4622 -100.4694 81° East 482 555 31,000  Level Denver Center
02:50PM 42.4817 -100.3000 81° East 478 550 31,000  Level Denver Center
02:51PM 42.5025 -100.1300 81° East 478 550 31,000  Level Denver Center
02:51PM 42.5183 -99.9897 81° East 478 550 31,000  Level Minneapolis Center
02:52PM 42.5228 -99.9517 81° East 481 554 31,000  Level Denver Center
02:53PM 42.5400 -99.8117 80° East 480 552 31,000  Level Minneapolis Center
02:54PM 42.5636 -99.5986 81° East 476 548 31,000  Level Minneapolis Center
02:55PM 42.5833 -99.4217 81° East 474 545 31,000  Level Minneapolis Center
02:56PM 42.6036 -99.2458 81° East 472 543 31,000  Level Minneapolis Center
02:57PM 42.6236 -99.0689 81° East 473 544 31,000  Level Minneapolis Center
02:58PM 42.6411 -98.8911 82° East 476 548 31,000  Level Minneapolis Center
02:59PM 42.6603 -98.7150 82° East 472 543 31,000  Level Minneapolis Center
03:00PM 42.6828 -98.5014 82° East 474 545 31,000  Level Minneapolis Center
03:01PM 42.7008 -98.3253 82° East 471 542 31,000  Level Minneapolis Center
03:02PM 42.7194 -98.1389 82° East 473 544 31,000  Level Minneapolis Center
03:03PM 42.7367 -97.9633 82° East 473 544 31,000  Level Minneapolis Center
03:04PM 42.7531 -97.7881 83° East 471 542 31,000  Level Minneapolis Center
03:05PM 42.7694 -97.6158 83° East 465 535 31,000  Level Minneapolis Center
03:06PM 42.7856 -97.4442 83° East 462 532 31,000  Level Minneapolis Center
03:07PM 42.8019 -97.2708 83° East 463 533 31,000  Level Minneapolis Center
03:08PM 42.8178 -97.0981 83° East 463 533 31,000  Level Minneapolis Center
03:09PM 42.8364 -96.8892 83° East 464 534 31,000  Level Minneapolis Center
03:10PM 42.8517 -96.7178 83° East 462 532 31,000  Level Minneapolis Center
03:11PM 42.8667 -96.5411 83° East 467 537 31,000  Level Minneapolis Center
03:12PM 42.8811 -96.3650 84° East 470 541 31,000  Level Minneapolis Center
03:13PM 42.8964 -96.1897 83° East 470 541 31,000  Level Minneapolis Center
03:14PM 42.9103 -96.0175 84° East 464 534 31,000  Level Minneapolis Center
03:15PM 42.9233 -95.8461 84° East 459 528 31,000  Level Minneapolis Center
03:16PM 42.9408 -95.6347 83° East 468 539 31,000  Level Minneapolis Center
03:17PM 42.9547 -95.4525 84° East 481 554 31,000  Level Minneapolis Center
03:22PM 43.0230 -94.4870 84° East 498 573 31,000  Level FlightAware
03:23PM 43.0330 -94.3450 84° East 501 577 31,000  Level FlightAware
03:24PM 43.0410 -94.2220 85° East 503 579 31,000  Level FlightAware
03:25PM 43.0490 -94.0990 85° East 504 580 31,000  Level FlightAware
03:25PM 43.0430 -93.9470 93° East 500 575 31,000  Level FlightAware
03:26PM 43.0330 -93.8250 96° East 492 566 31,000  Level FlightAware
03:27PM 43.0220 -93.6870 96° East 497 572 31,000  Level FlightAware
03:27PM 43.0120 -93.5620 96° East 503 579 31,000  Level FlightAware
03:28PM 43.0020 -93.4390 96° East 506 582 31,000  Level FlightAware
03:29PM 42.9900 -93.2900 96° East 508 585 31,000  Level FlightAware
03:29PM 42.9790 -93.1630 97° East 510 587 31,000  Level FlightAware
03:30PM 42.9670 -93.0230 97° East 512 589 31,000  Level FlightAware
03:31PM 42.9570 -92.9070 97° East 512 589 31,000  Level FlightAware
03:32PM 42.9440 -92.7660 97° East 509 586 31,000  Level FlightAware
03:32PM 42.9310 -92.6210 97° East 511 588 31,000  Level FlightAware
03:33PM 42.9210 -92.5100 97° East 512 589 31,000  Level FlightAware
03:34PM 42.9070 -92.3540 97° East 514 592 31,000  Level FlightAware
03:34PM 42.8940 -92.2220 98° East 517 595 31,000  Level FlightAware
03:35PM 42.8780 -92.0460 97° East 517 595 31,000  Level FlightAware
03:36PM 42.8650 -91.9140 98° East 516 594 31,000  Level FlightAware
03:37PM 42.8550 -91.8090 97° East 515 593 31,000  Level FlightAware
03:38PM 42.8380 -91.6330 97° East 515 593 31,000  Level FlightAware
03:38PM 42.8220 -91.4740 98° East 516 594 31,000  Level FlightAware
03:39PM 42.8070 -91.3260 98° East 517 595 31,000  Level FlightAware
03:40PM 42.7930 -91.1910 98° East 517 595 31,000  Level FlightAware
03:40PM 42.7780 -91.0470 98° East 519 597 31,000  Level FlightAware
03:41PM 42.7660 -90.9310 98° East 520 598 31,000  Level FlightAware
03:42PM 42.7510 -90.7950 98° East 521 600 31,000  Level FlightAware
03:43PM 42.7350 -90.6470 98° East 522 601 31,000  Level FlightAware
03:43PM 42.7210 -90.5160 98° East 521 600 31,000  Level FlightAware
03:44PM 42.7050 -90.3740 99° East 519 597 31,000 -840 Level FlightAware
03:45PM 42.6930 -90.2590 98° East 510 587 29,900 -2,280 Descending FlightAware
03:46PM 42.6680 -90.0400 99° East 494 568 27,100 -2,400 Descending FlightAware
03:46PM 42.6540 -89.9190 99° East 484 557 25,600 -2,280 Descending FlightAware
03:47PM 42.6400 -89.7900 98° East 471 542 23,900 -2,400 Descending FlightAware
03:48PM 42.6250 -89.6680 99° East 460 529 22,200 -2,280 Descending FlightAware
03:49PM 42.6100 -89.5460 99° East 445 512 20,700 -2,100 Descending FlightAware
03:49PM 42.5980 -89.4380 99° East 430 495 19,300 -2,040 Descending FlightAware
03:50PM 42.5830 -89.3320 101° East 416 479 18,000 -1,980 Descending FlightAware
03:50PM 42.5720 -89.3030 117° Southeast 404 465 17,500 -1,920 Descending FlightAware
03:50PM 42.5560 -89.2810 135° Southeast 392 451 17,200 -1,560 Descending FlightAware
03:51PM 42.4990 -89.2220 143° Southeast 374 430 16,200 -1,500 Descending FlightAware
03:52PM 42.4470 -89.1670 142° Southeast 358 412 15,200 -1,860 Descending FlightAware
03:52PM 42.3880 -89.1060 143° Southeast 357 411 13,600 -1,860 Descending FlightAware
03:53PM 42.3370 -89.0510 141° Southeast 347 399 12,600 -1,380 Descending FlightAware
03:54PM 42.2870 -88.9920 139° Southeast 348 400 11,800 -1,020 Descending FlightAware
03:54PM 42.2790 -88.9670 113° Southeast 345 397 11,700 -600 Descending FlightAware
03:54PM 42.2770 -88.9380 95° East 340 391 11,500 -1,320 Descending FlightAware
03:55PM 42.2800 -88.8490 87° East 331 381 10,500 -1,500 Descending FlightAware
03:55PM 42.2830 -88.7870 86° East 327 376 9,800 -1,380 Descending FlightAware
03:56PM 42.2840 -88.7590 87° East 320 368 9,500 -1,380 Descending FlightAware
03:56PM 42.2870 -88.6960 86° East 311 358 8,800 -1,380 Descending FlightAware
03:56PM 42.2880 -88.6780 86° East 308 354 8,600 -1,380 Descending FlightAware
03:57PM 42.2910 -88.6200 86° East 301 346 7,900 -1,200 Descending FlightAware
03:57PM 42.2940 -88.5680 86° East 294 338 7,400 -900 Descending FlightAware
03:58PM 42.2970 -88.5240 85° East 289 333 7,100 -360 Descending FlightAware
03:58PM 42.3000 -88.4680 86° East 286 329 7,100  Level FlightAware
03:59PM 42.3020 -88.4310 86° East 290 334 7,100  Level FlightAware
03:59PM 42.2920 -88.3700 102° East 292 336 7,100  Level FlightAware
04:00PM 42.2820 -88.3180 105° East 290 334 7,100 -120 Level FlightAware
04:00PM 42.2750 -88.2810 104° East 289 333 7,000 -900 Descending FlightAware
04:00PM 42.2650 -88.2470 112° Southeast 281 323 6,500 -1,380 Descending FlightAware
04:01PM 42.2520 -88.2300 136° Southeast 275 316 6,200 -1,200 Descending FlightAware
04:01PM 42.2290 -88.2030 139° Southeast 269 310 5,700 -1,080 Descending FlightAware
04:01PM 42.2140 -88.1860 140° Southeast 266 306 5,500 -720 Descending FlightAware
04:02PM 42.1870 -88.1550 140° Southeast 249 287 5,200 -540 Descending FlightAware
04:02PM 42.1740 -88.1400 139° Southeast 239 275 5,100 -180 Descending FlightAware
04:02PM 42.1540 -88.1180 141° Southeast 224 258 5,100 -840 Level FlightAware
04:03PM 42.1320 -88.0930 140° Southeast 234 269 4,400 -1,140 Descending FlightAware
04:03PM 42.1110 -88.0680 139° Southeast 215 247 4,100 -840 Descending FlightAware
04:04PM 42.0990 -88.0550 141° Southeast 206 237 3,800 -1,080 Descending FlightAware
04:04PM 42.0780 -88.0320 141° Southeast 186 214 3,300 -1,200 Descending FlightAware
04:04PM 42.0620 -88.0130 139° Southeast 175 201 2,700 -1,380 Descending FlightAware
04:05PM 42.0530 -88.0040 143° Southeast 160 184 2,400 -1,080 Descending FlightAware
04:05PM 42.0360 -87.9850 140° Southeast 151 174 1,900 -960 Descending FlightAware
04:05PM 42.0290 -87.9770 140° Southeast 151 174 1,700 -780 Descending FlightAware
04:06PM 42.0170 -87.9630 139° Southeast 146 168 1,400 -720 Descending FlightAware
04:06PM 42.0040 -87.9480 139° Southeast 146 168 1,100 -720 Descending FlightAware
04:07PM 41.9900 -87.9330 141° Southeast 149 171 800 -720 Descending FlightAware